Fair Isle, United Kingdom
Current Conditions -  °F | °C
As of 2:20 AM on Thursday 23 Oct 2014 (Local Time) from EGPB Reporting Station
Rain Showers Rain Showers  
Wind Chill: 54°   Ceiling: 700
Heat Index: 54°   Visibility: 1.8mi
Dew Point: 52°   Wind: 20mph
Humidity: 94%   Direction: 210°SSW
Pressure: 29.56"   Gusts: NA
Location:  59.53°N, 1.63°W
Report Text: EGPB 230120Z AUTO 21017KT 2900 SHRA SCT004/// BKN007/// 12/11 Q1001
Loading
Personal Weather Stations






























Interactive Weather Map
Tropical Storm Tracking
New forecast layout! Learn more

10-Day Weather Forecast

Advertisements
Track Severe Weather on mobile